createdAt,value
2023-12-17T00:02:20.020Z,-10.00
2023-12-17T00:04:47.730Z,-9.68
2023-12-17T00:07:16.192Z,-9.60
2023-12-17T00:09:43.985Z,-10.04
2023-12-17T00:12:12.083Z,-9.62
2023-12-17T00:14:39.500Z,-9.82
2023-12-17T00:17:07.006Z,-9.24
2023-12-17T00:19:34.494Z,-9.51
2023-12-17T00:22:02.037Z,-9.46
2023-12-17T00:24:29.659Z,-9.36
2023-12-17T00:26:58.906Z,-9.23
2023-12-17T00:29:47.977Z,-9.34
2023-12-17T00:32:15.435Z,-9.25
2023-12-17T00:34:42.916Z,-9.28
2023-12-17T00:37:10.534Z,-9.31
2023-12-17T00:39:37.922Z,-9.15
2023-12-17T00:42:05.715Z,-9.22
2023-12-17T00:44:33.098Z,-9.34
2023-12-17T00:47:34.644Z,-9.28
2023-12-17T00:50:02.128Z,-9.54
2023-12-17T00:52:29.561Z,-9.31
2023-12-17T00:54:57.141Z,-9.19
2023-12-17T00:57:24.498Z,-9.23
2023-12-17T00:59:51.902Z,-8.87
2023-12-17T01:02:19.292Z,-8.80
2023-12-17T01:05:03.836Z,-8.85
2023-12-17T01:07:31.175Z,-8.86
2023-12-17T01:09:58.433Z,-8.89
2023-12-17T01:12:25.702Z,-8.64
2023-12-17T01:14:53.211Z,-8.80
2023-12-17T01:17:20.588Z,-8.70
2023-12-17T01:19:48.308Z,-8.81
2023-12-17T01:23:21.777Z,-8.63
2023-12-17T01:25:49.285Z,-8.69
2023-12-17T01:41:48.576Z,-8.49
2023-12-17T01:44:16.109Z,-8.76
2023-12-17T01:50:10.805Z,-8.17
2023-12-17T01:52:39.772Z,-8.39
2023-12-17T01:55:08.886Z,-8.56
2023-12-17T02:01:23.971Z,-8.34
2023-12-17T02:07:31.806Z,-8.18
2023-12-17T02:09:59.141Z,-7.81
2023-12-17T02:12:33.181Z,-8.04
2023-12-17T02:15:00.721Z,-7.91
2023-12-17T02:17:30.222Z,-8.00
2023-12-17T02:19:58.112Z,-8.15
2023-12-17T02:22:26.582Z,-8.15
2023-12-17T02:24:54.999Z,-8.34
2023-12-17T02:27:24.282Z,-8.04
2023-12-17T02:29:53.005Z,-7.92
2023-12-17T02:32:22.692Z,-7.89
2023-12-17T02:34:51.222Z,-7.98
2023-12-17T02:37:19.437Z,-7.98
2023-12-17T02:39:46.826Z,-7.78
2023-12-17T02:42:15.659Z,-7.69
2023-12-17T02:45:19.236Z,-7.48
2023-12-17T02:47:47.053Z,-7.26
2023-12-17T02:50:14.771Z,-7.27
2023-12-17T02:52:42.116Z,-7.41
2023-12-17T02:55:10.673Z,-7.55
2023-12-17T02:57:38.991Z,-7.59
2023-12-17T03:00:07.126Z,-7.35
2023-12-17T03:02:34.574Z,-7.35
2023-12-17T03:05:02.192Z,-7.40
2023-12-17T03:07:30.929Z,-7.13
2023-12-17T03:09:58.543Z,-7.27
2023-12-17T03:12:25.933Z,-7.17
2023-12-17T03:14:53.668Z,-7.00
2023-12-17T03:17:21.053Z,-7.04
2023-12-17T03:19:48.694Z,-7.06
2023-12-17T03:22:16.162Z,-6.76
2023-12-17T03:24:43.521Z,-6.90
2023-12-17T03:27:11.214Z,-6.98
2023-12-17T03:29:38.835Z,-6.77
2023-12-17T03:32:06.753Z,-6.70
2023-12-17T03:35:10.327Z,-6.86
2023-12-17T03:37:37.841Z,-7.04
2023-12-17T03:40:05.862Z,-6.79
2023-12-17T03:43:33.265Z,-6.73
2023-12-17T03:46:00.680Z,-6.68
2023-12-17T03:48:28.169Z,-6.82
2023-12-17T03:50:55.970Z,-6.83
2023-12-17T03:53:23.631Z,-6.74
2023-12-17T03:55:51.048Z,-6.59
2023-12-17T03:59:17.959Z,-6.38
2023-12-17T04:01:47.528Z,-6.33
2023-12-17T04:04:14.943Z,-5.95
2023-12-17T04:06:45.587Z,-5.84
2023-12-17T04:10:03.030Z,-5.66
2023-12-17T04:12:30.666Z,-5.64
2023-12-17T04:14:58.962Z,-5.56
2023-12-17T04:17:26.719Z,-5.70
2023-12-17T04:23:20.668Z,-5.56
2023-12-17T04:25:48.170Z,-5.29
2023-12-17T04:28:15.682Z,-5.36
2023-12-17T04:30:43.160Z,-5.34
2023-12-17T04:33:10.645Z,-5.43
2023-12-17T04:36:12.589Z,-5.51
2023-12-17T04:38:40.357Z,-5.44
2023-12-17T04:41:08.043Z,-5.61
2023-12-17T04:43:35.624Z,-5.40
2023-12-17T04:46:03.752Z,-5.28
2023-12-17T04:48:31.210Z,-5.17
2023-12-17T04:51:31.438Z,-5.21
2023-12-17T04:53:59.005Z,-5.28
2023-12-17T05:03:20.793Z,-5.22
2023-12-17T05:05:50.828Z,-5.18
2023-12-17T05:08:22.869Z,-4.98
2023-12-17T05:10:50.524Z,-5.24
2023-12-17T05:13:18.035Z,-5.13
2023-12-17T05:15:46.085Z,-4.99
2023-12-17T05:18:14.011Z,-4.93
2023-12-17T05:21:21.316Z,-4.86
2023-12-17T05:24:11.265Z,-4.78
2023-12-17T05:26:40.583Z,-4.74
2023-12-17T05:32:35.395Z,-4.53
2023-12-17T05:35:06.466Z,-4.49
2023-12-17T05:37:39.233Z,-4.45
2023-12-17T05:40:10.167Z,-4.47
2023-12-17T05:42:38.673Z,-4.36
2023-12-17T05:45:47.709Z,-4.17
2023-12-17T05:48:32.257Z,-4.29
2023-12-17T05:57:57.315Z,-4.13
2023-12-17T06:04:54.270Z,-4.13
2023-12-17T06:07:21.760Z,-4.18
2023-12-17T06:09:49.303Z,-4.17
2023-12-17T06:12:16.898Z,-4.33
2023-12-17T06:18:10.980Z,-4.35
2023-12-17T06:20:56.878Z,-4.28
2023-12-17T06:30:54.720Z,-4.32
2023-12-17T06:33:26.959Z,-4.45
2023-12-17T06:35:54.618Z,-4.51
2023-12-17T06:38:44.412Z,-4.54
2023-12-17T06:44:39.306Z,-4.64
2023-12-17T06:47:18.057Z,-4.55
2023-12-17T06:50:12.769Z,-4.67
2023-12-17T06:52:42.718Z,-4.91
2023-12-17T06:55:11.016Z,-5.01
2023-12-17T06:57:38.814Z,-4.89
2023-12-17T07:00:30.088Z,-5.00
2023-12-17T07:03:01.942Z,-4.77
2023-12-17T07:05:33.694Z,-4.91
2023-12-17T07:08:04.064Z,-4.62
2023-12-17T07:10:31.894Z,-4.72
2023-12-17T07:12:59.218Z,-4.71
2023-12-17T07:15:26.681Z,-4.93
2023-12-17T07:17:54.228Z,-4.92
2023-12-17T07:20:21.468Z,-5.11
2023-12-17T07:22:49.619Z,-4.96
2023-12-17T07:36:30.399Z,-4.63
2023-12-17T07:39:08.712Z,-4.77
2023-12-17T07:41:38.110Z,-4.85
2023-12-17T07:47:34.479Z,-4.38
2023-12-17T07:50:02.032Z,-4.27
2023-12-17T08:13:23.038Z,-4.31
2023-12-17T08:16:18.743Z,-4.12
2023-12-17T08:18:49.102Z,-4.29
2023-12-17T08:21:16.933Z,-4.31
2023-12-17T08:23:46.674Z,-4.38
2023-12-17T08:29:55.652Z,-4.39
2023-12-17T08:32:24.781Z,-4.34
2023-12-17T08:34:52.335Z,-4.44
2023-12-17T08:37:20.869Z,-4.57
2023-12-17T08:39:48.341Z,-4.53
2023-12-17T08:42:15.820Z,-4.62
2023-12-17T08:44:47.792Z,-4.55
2023-12-17T08:47:15.324Z,-4.52
2023-12-17T08:49:42.936Z,-4.58
2023-12-17T08:56:23.636Z,-4.77
2023-12-17T08:58:52.866Z,-4.98
2023-12-17T09:01:20.510Z,-5.04
2023-12-17T09:03:48.787Z,-4.98
2023-12-17T09:06:16.798Z,-4.97
2023-12-17T09:08:44.358Z,-5.00
2023-12-17T09:11:13.456Z,-4.99
2023-12-17T09:13:43.259Z,-4.93
2023-12-17T09:16:10.626Z,-5.11
2023-12-17T09:18:38.229Z,-5.15
2023-12-17T09:21:07.912Z,-5.04
2023-12-17T09:23:37.423Z,-4.83
2023-12-17T09:26:39.680Z,-4.80
2023-12-17T09:29:07.022Z,-4.89
2023-12-17T09:31:38.369Z,-4.88
2023-12-17T09:34:05.902Z,-4.90
2023-12-17T09:36:33.780Z,-4.87
2023-12-17T09:39:01.107Z,-4.96
2023-12-17T09:41:28.377Z,-4.96
2023-12-17T09:43:56.865Z,-5.11
2023-12-17T09:46:24.520Z,-5.10
2023-12-17T09:48:54.895Z,-5.14
2023-12-17T09:52:08.754Z,-5.06
2023-12-17T09:58:04.831Z,-5.02
2023-12-17T10:00:33.182Z,-5.06
2023-12-17T10:03:07.195Z,-5.01
2023-12-17T10:05:35.875Z,-5.12
2023-12-17T10:08:03.313Z,-5.02
2023-12-17T10:10:31.479Z,-4.99
2023-12-17T10:12:59.143Z,-5.12
2023-12-17T10:15:26.595Z,-5.21
2023-12-17T10:17:54.108Z,-5.22
2023-12-17T10:20:53.633Z,-5.13
2023-12-17T10:23:23.595Z,-5.16
2023-12-17T10:26:04.869Z,-5.32
2023-12-17T10:28:33.652Z,-5.33
2023-12-17T10:31:03.592Z,-5.32
2023-12-17T10:33:38.982Z,-5.31
2023-12-17T10:36:07.272Z,-5.28
2023-12-17T10:38:35.840Z,-5.18
2023-12-17T10:41:09.777Z,-5.15
2023-12-17T10:43:42.087Z,-5.32
2023-12-17T10:46:10.558Z,-5.18
2023-12-17T10:48:39.465Z,-5.23
2023-12-17T10:51:12.487Z,-5.20
2023-12-17T10:53:40.906Z,-5.32
2023-12-17T10:56:08.967Z,-5.35
2023-12-17T10:58:37.430Z,-5.25
2023-12-17T11:01:05.651Z,-5.22
2023-12-17T11:03:34.318Z,-5.16
2023-12-17T11:06:02.892Z,-5.18
2023-12-17T11:08:31.003Z,-5.13
2023-12-17T11:10:59.858Z,-5.13
2023-12-17T11:13:40.925Z,-5.27
2023-12-17T11:16:28.204Z,-5.16
2023-12-17T11:19:02.070Z,-5.07
2023-12-17T11:21:29.839Z,-5.18
2023-12-17T11:23:58.753Z,-5.15
2023-12-17T11:26:29.281Z,-5.21
2023-12-17T11:28:56.624Z,-5.03
2023-12-17T11:31:24.499Z,-4.91
2023-12-17T11:33:53.037Z,-4.89
2023-12-17T11:36:20.742Z,-4.87
2023-12-17T11:38:49.725Z,-4.85
2023-12-17T11:41:17.336Z,-4.87
2023-12-17T11:47:10.834Z,-4.58
2023-12-17T11:49:38.468Z,-4.56
2023-12-17T11:52:16.221Z,-4.62
2023-12-17T11:54:47.260Z,-4.50
2023-12-17T12:29:45.127Z,-5.00
2023-12-17T12:39:29.470Z,-5.22
2023-12-17T12:42:19.615Z,-5.03
2023-12-17T12:44:47.051Z,-5.14
2023-12-17T12:47:32.878Z,-5.04
2023-12-17T12:50:00.454Z,-5.09
2023-12-17T12:52:31.107Z,-5.04
2023-12-17T12:54:59.564Z,-5.10
2023-12-17T12:57:27.169Z,-5.06
2023-12-17T12:59:56.392Z,-5.17
2023-12-17T13:02:26.642Z,-5.07
2023-12-17T13:04:53.863Z,-4.99
2023-12-17T13:07:24.533Z,-4.96
2023-12-17T13:10:01.019Z,-4.95
2023-12-17T13:12:36.435Z,-4.96
2023-12-17T13:15:06.953Z,-4.93
2023-12-17T13:17:46.444Z,-4.97
2023-12-17T13:20:14.757Z,-5.02
2023-12-17T13:22:43.405Z,-4.96
2023-12-17T13:25:13.309Z,-4.96
2023-12-17T13:27:41.206Z,-4.98
2023-12-17T13:30:09.181Z,-4.96
2023-12-17T13:32:36.635Z,-4.83
2023-12-17T13:35:04.351Z,-4.96
2023-12-17T13:37:31.796Z,-4.93
2023-12-17T13:39:59.090Z,-4.92
2023-12-17T13:42:27.230Z,-4.81
2023-12-17T13:44:54.690Z,-4.66
2023-12-17T13:47:24.291Z,-4.66
2023-12-17T13:49:51.697Z,-4.60
2023-12-17T13:52:20.990Z,-4.63
2023-12-17T13:54:48.373Z,-4.42
2023-12-17T13:57:20.172Z,-4.49
2023-12-17T13:59:50.967Z,-4.44
2023-12-17T14:02:21.566Z,-4.49
2023-12-17T14:04:49.023Z,-4.35
2023-12-17T14:07:16.297Z,-4.20
2023-12-17T14:09:43.937Z,-4.13
2023-12-17T14:12:13.734Z,-4.15
2023-12-17T14:14:42.456Z,-4.20
2023-12-17T14:17:09.791Z,-4.09
2023-12-17T14:19:37.489Z,-4.09
2023-12-17T14:22:06.155Z,-4.08
2023-12-17T14:24:33.595Z,-4.10
2023-12-17T14:27:03.977Z,-4.01
2023-12-17T14:29:31.514Z,-3.96
2023-12-17T14:32:04.208Z,-4.00
2023-12-17T14:34:36.965Z,-3.80
2023-12-17T14:37:09.639Z,-3.80
2023-12-17T14:39:37.027Z,-3.66
2023-12-17T14:42:04.743Z,-3.77
2023-12-17T14:44:32.112Z,-3.57
2023-12-17T14:47:02.393Z,-3.50
2023-12-17T14:49:29.866Z,-3.51
2023-12-17T14:51:57.386Z,-3.33
2023-12-17T14:58:00.910Z,-3.33
2023-12-17T15:00:34.550Z,-3.43
2023-12-17T15:03:04.827Z,-3.28
2023-12-17T15:05:34.322Z,-3.23
2023-12-17T15:08:09.978Z,-3.20
2023-12-17T15:10:38.668Z,-3.12
2023-12-17T15:17:35.376Z,-2.94
2023-12-17T16:14:59.771Z,-2.75
2023-12-17T16:17:36.929Z,-2.65
2023-12-17T16:20:04.741Z,-2.59
2023-12-17T16:25:27.933Z,-2.58
2023-12-17T16:27:57.964Z,-2.65
2023-12-17T16:30:40.636Z,-2.58
2023-12-17T16:33:09.028Z,-2.84
2023-12-17T16:35:36.716Z,-2.88
2023-12-17T16:38:05.809Z,-2.79
2023-12-17T16:41:07.118Z,-2.57
2023-12-17T16:43:34.664Z,-2.60
2023-12-17T16:46:13.647Z,-2.55
2023-12-17T16:48:41.012Z,-2.72
2023-12-17T16:54:57.572Z,-2.68
2023-12-17T16:57:25.003Z,-2.55
2023-12-17T17:00:04.581Z,-2.58
2023-12-17T17:03:10.796Z,-2.38
2023-12-17T17:05:41.695Z,-2.52
2023-12-17T17:11:55.377Z,-2.62
2023-12-17T17:14:47.293Z,-2.52
2023-12-17T17:17:17.674Z,-2.58
2023-12-17T17:22:27.749Z,-2.50
2023-12-17T17:25:03.776Z,-2.55
2023-12-17T17:27:37.382Z,-2.67
2023-12-17T17:30:13.344Z,-2.67
2023-12-17T17:36:32.898Z,-2.57
2023-12-17T17:39:04.962Z,-2.49
2023-12-17T17:41:33.544Z,-2.38
2023-12-17T17:44:01.875Z,-2.56
2023-12-17T17:46:47.596Z,-2.27
2023-12-17T18:01:07.453Z,-2.59
2023-12-17T18:07:14.659Z,-2.37
2023-12-17T18:09:42.982Z,-2.37
2023-12-17T18:12:10.694Z,-2.36
2023-12-17T18:14:38.457Z,-2.27
2023-12-17T18:17:06.814Z,-2.29
2023-12-17T18:20:33.673Z,-2.28
2023-12-17T18:23:00.960Z,-2.17
2023-12-17T18:25:28.963Z,-2.25
2023-12-17T18:28:15.430Z,-2.17
2023-12-17T18:30:43.133Z,-2.26
2023-12-17T18:33:10.651Z,-2.12
2023-12-17T18:35:38.431Z,-2.23
2023-12-17T18:38:05.697Z,-2.15
2023-12-17T18:40:33.041Z,-2.09
2023-12-17T18:43:07.844Z,-2.04
2023-12-17T18:55:06.321Z,-2.09
2023-12-17T18:58:20.032Z,-2.09
2023-12-17T19:00:48.014Z,-2.00
2023-12-17T19:06:10.285Z,-2.18
2023-12-17T19:08:45.955Z,-2.02
2023-12-17T19:11:52.847Z,-2.08
2023-12-17T19:21:22.349Z,-1.89
2023-12-17T19:24:43.598Z,-1.88
2023-12-17T19:51:24.828Z,-1.80
2023-12-17T19:54:10.504Z,-1.79
2023-12-17T19:56:38.012Z,-1.73
2023-12-17T19:59:05.341Z,-1.84
2023-12-17T20:01:32.875Z,-1.72
2023-12-17T20:04:00.429Z,-1.85
2023-12-17T20:06:31.306Z,-1.92
2023-12-17T20:08:58.964Z,-1.82
2023-12-17T20:11:26.376Z,-1.77
2023-12-17T20:13:53.724Z,-1.69
2023-12-17T20:16:21.120Z,-1.64
2023-12-17T20:18:53.590Z,-1.59
2023-12-17T20:21:22.309Z,-1.64
2023-12-17T20:23:51.149Z,-1.73
2023-12-17T20:29:07.036Z,-1.74
2023-12-17T20:31:34.920Z,-1.64
2023-12-17T20:34:02.893Z,-1.82
2023-12-17T20:36:30.367Z,-1.74
2023-12-17T20:38:58.469Z,-1.64
2023-12-17T20:41:30.353Z,-1.79
2023-12-17T20:43:57.602Z,-1.68
2023-12-17T20:46:25.782Z,-1.63
2023-12-17T20:49:26.220Z,-1.63
2023-12-17T20:51:54.141Z,-1.67
2023-12-17T20:54:21.608Z,-1.60
2023-12-17T20:56:48.928Z,-1.69
2023-12-17T20:59:16.448Z,-1.66
2023-12-17T21:01:46.580Z,-1.72
2023-12-17T21:04:15.209Z,-1.56
2023-12-17T21:06:44.939Z,-1.65
2023-12-17T21:09:14.422Z,-1.60
2023-12-17T21:11:47.903Z,-1.53
2023-12-17T21:14:15.493Z,-1.56
2023-12-17T21:16:43.952Z,-1.53
2023-12-17T21:19:11.788Z,-1.60
2023-12-17T21:21:39.359Z,-1.46
2023-12-17T21:24:07.730Z,-1.50
2023-12-17T21:26:37.972Z,-1.52
2023-12-17T21:29:05.401Z,-1.65
2023-12-17T21:31:33.202Z,-1.66
2023-12-17T21:34:07.048Z,-1.54
2023-12-17T21:36:34.795Z,-1.46
2023-12-17T21:39:05.146Z,-1.60
2023-12-17T22:00:02.377Z,-1.33
2023-12-17T22:02:34.361Z,-1.40
2023-12-17T22:05:01.965Z,-1.29
2023-12-17T22:07:29.470Z,-1.44
2023-12-17T22:09:56.927Z,-1.45
2023-12-17T22:12:24.606Z,-1.37
2023-12-17T22:14:54.476Z,-1.48
2023-12-17T22:17:23.943Z,-1.46
2023-12-17T22:19:54.684Z,-1.49
2023-12-17T22:22:22.760Z,-1.26
2023-12-17T22:24:50.280Z,-1.30
2023-12-17T22:27:17.621Z,-1.46
2023-12-17T22:29:45.124Z,-1.47
2023-12-17T22:32:12.679Z,-1.40
2023-12-17T22:34:40.869Z,-1.33
2023-12-17T22:37:10.331Z,-1.45
2023-12-17T22:39:37.758Z,-1.48
2023-12-17T22:42:05.701Z,-1.39
2023-12-17T22:44:36.376Z,-1.54
2023-12-17T22:47:10.365Z,-1.47
2023-12-17T22:49:41.000Z,-1.48
2023-12-17T22:52:11.031Z,-1.47
2023-12-17T22:54:38.557Z,-1.50
2023-12-17T22:57:06.181Z,-1.47
2023-12-17T22:59:33.514Z,-1.50
2023-12-17T23:02:00.796Z,-1.29
2023-12-17T23:04:28.212Z,-1.34
2023-12-17T23:06:55.572Z,-1.39
2023-12-17T23:09:23.561Z,-1.35
2023-12-17T23:11:51.595Z,-1.35
2023-12-17T23:14:18.932Z,-1.34
2023-12-17T23:16:46.161Z,-1.35
2023-12-17T23:19:13.669Z,-1.43
2023-12-17T23:21:41.145Z,-1.24
2023-12-17T23:24:09.474Z,-1.33
2023-12-17T23:26:40.722Z,-1.37
2023-12-17T23:29:08.152Z,-1.37
2023-12-17T23:31:36.294Z,-1.49
2023-12-17T23:34:03.774Z,-1.53
2023-12-17T23:36:31.175Z,-1.46
2023-12-17T23:38:59.172Z,-1.34
2023-12-17T23:41:26.453Z,-1.41
2023-12-17T23:43:53.796Z,-1.51
2023-12-17T23:46:21.209Z,-1.51
2023-12-17T23:48:48.591Z,-1.46
2023-12-17T23:51:16.073Z,-1.51
2023-12-17T23:53:43.389Z,-1.47
2023-12-17T23:56:10.738Z,-1.35
2023-12-17T23:58:38.090Z,-1.43
